createdAt,value
2018-10-18T00:01:04.054Z,11.40
2018-10-18T00:03:32.255Z,11.40
2018-10-18T00:06:00.461Z,11.30
2018-10-18T00:08:28.541Z,11.30
2018-10-18T00:10:56.719Z,11.30
2018-10-18T00:13:24.886Z,11.40
2018-10-18T00:15:53.062Z,11.40
2018-10-18T00:18:21.232Z,11.40
2018-10-18T00:20:49.394Z,11.30
2018-10-18T00:23:17.546Z,11.10
2018-10-18T00:25:45.719Z,11.00
2018-10-18T00:28:13.875Z,11.00
2018-10-18T00:30:42.093Z,11.00
2018-10-18T00:33:10.299Z,11.00
2018-10-18T00:35:38.459Z,11.00
2018-10-18T00:38:06.647Z,11.00
2018-10-18T00:40:34.780Z,11.10
2018-10-18T00:43:02.930Z,11.20
2018-10-18T00:45:31.122Z,11.20
2018-10-18T00:47:59.352Z,11.20
2018-10-18T00:50:27.468Z,11.00
2018-10-18T00:52:55.706Z,11.00
2018-10-18T00:55:23.958Z,10.90
2018-10-18T00:57:52.170Z,10.80
2018-10-18T01:00:20.345Z,10.80
2018-10-18T01:02:48.515Z,10.80
2018-10-18T01:05:16.703Z,10.80
2018-10-18T01:07:44.858Z,10.80
2018-10-18T01:10:13.062Z,10.80
2018-10-18T01:12:41.279Z,10.70
2018-10-18T01:15:09.379Z,10.70
2018-10-18T01:17:37.558Z,10.70
2018-10-18T01:20:05.987Z,10.70
2018-10-18T01:22:34.137Z,10.70
2018-10-18T01:25:02.449Z,10.70
2018-10-18T01:27:30.615Z,10.60
2018-10-18T01:29:58.815Z,10.60
2018-10-18T01:32:26.931Z,10.60
2018-10-18T01:34:55.090Z,10.60
2018-10-18T01:37:23.355Z,10.50
2018-10-18T01:39:51.518Z,10.60
2018-10-18T01:42:19.769Z,10.60
2018-10-18T01:44:47.829Z,10.60
2018-10-18T01:47:15.999Z,10.60
2018-10-18T01:49:44.178Z,10.60
2018-10-18T01:52:12.342Z,10.40
2018-10-18T01:54:40.498Z,10.30
2018-10-18T01:57:08.688Z,10.30
2018-10-18T01:59:36.846Z,10.30
2018-10-18T02:02:05.079Z,10.30
2018-10-18T02:04:33.179Z,10.30
2018-10-18T02:07:01.350Z,10.20
2018-10-18T02:09:29.492Z,10.20
2018-10-18T02:11:57.684Z,10.20
2018-10-18T02:14:25.814Z,10.20
2018-10-18T02:16:53.945Z,10.30
2018-10-18T02:19:22.131Z,10.30
2018-10-18T02:21:50.290Z,10.30
2018-10-18T02:24:18.453Z,10.30
2018-10-18T02:26:46.620Z,10.30
2018-10-18T02:29:14.758Z,10.30
2018-10-18T02:31:42.907Z,10.30
2018-10-18T02:34:11.111Z,10.30
2018-10-18T02:36:39.290Z,10.30
2018-10-18T02:39:09.566Z,10.30
2018-10-18T02:41:37.971Z,10.30
2018-10-18T02:44:06.127Z,10.40
2018-10-18T02:46:34.302Z,10.40
2018-10-18T02:49:02.529Z,10.40
2018-10-18T02:51:30.679Z,10.40
2018-10-18T02:53:58.833Z,10.40
2018-10-18T02:56:26.985Z,10.30
2018-10-18T02:58:55.200Z,10.30
2018-10-18T03:01:23.359Z,10.30
2018-10-18T03:03:51.522Z,10.30
2018-10-18T03:06:19.832Z,10.30
2018-10-18T03:08:47.838Z,10.30
2018-10-18T03:11:15.995Z,10.20
2018-10-18T03:13:44.143Z,10.00
2018-10-18T03:16:12.444Z,10.00
2018-10-18T03:18:40.456Z,10.00
2018-10-18T03:21:08.610Z,10.00
2018-10-18T03:23:36.731Z,9.90
2018-10-18T03:26:04.903Z,9.90
2018-10-18T03:28:33.055Z,9.90
2018-10-18T03:31:01.227Z,9.90
2018-10-18T03:33:29.601Z,9.90
2018-10-18T03:35:57.821Z,9.80
2018-10-18T03:38:25.962Z,9.90
2018-10-18T03:40:54.100Z,9.80
2018-10-18T03:43:22.270Z,9.80
2018-10-18T03:45:50.428Z,9.80
2018-10-18T03:48:18.614Z,9.70
2018-10-18T03:50:46.736Z,9.60
2018-10-18T03:53:14.886Z,9.50
2018-10-18T03:55:43.042Z,9.40
2018-10-18T03:58:11.230Z,9.40
2018-10-18T04:00:39.358Z,9.40
2018-10-18T04:03:07.532Z,9.40
2018-10-18T04:05:35.687Z,9.40
2018-10-18T04:08:03.875Z,9.40
2018-10-18T04:10:32.027Z,9.40
2018-10-18T04:13:00.205Z,9.40
2018-10-18T04:15:28.336Z,9.50
2018-10-18T04:17:56.517Z,9.50
2018-10-18T04:20:24.612Z,9.50
2018-10-18T04:22:52.753Z,9.50
2018-10-18T04:25:20.986Z,9.50
2018-10-18T04:27:49.123Z,9.50
2018-10-18T04:30:17.363Z,9.50
2018-10-18T04:32:45.446Z,9.50
2018-10-18T04:35:13.613Z,9.60
2018-10-18T04:37:41.754Z,9.60
2018-10-18T04:40:09.906Z,9.50
2018-10-18T04:42:38.052Z,9.50
2018-10-18T04:45:07.446Z,9.50
2018-10-18T04:47:35.713Z,9.50
2018-10-18T04:50:03.931Z,9.40
2018-10-18T04:52:32.080Z,9.30
2018-10-18T04:55:00.268Z,9.30
2018-10-18T04:57:28.389Z,9.20
2018-10-18T04:59:56.519Z,9.30
2018-10-18T05:02:24.736Z,9.20
2018-10-18T05:05:04.387Z,9.20
2018-10-18T05:07:32.550Z,9.20
2018-10-18T05:10:00.699Z,9.20
2018-10-18T05:12:28.878Z,9.10
2018-10-18T05:14:57.014Z,9.10
2018-10-18T05:17:25.182Z,9.10
2018-10-18T05:19:53.326Z,9.10
2018-10-18T05:22:21.478Z,9.10
2018-10-18T05:24:49.668Z,9.10
2018-10-18T05:27:17.795Z,9.10
2018-10-18T05:29:45.994Z,9.10
2018-10-18T05:32:14.137Z,9.00
2018-10-18T05:34:42.473Z,9.00
2018-10-18T05:37:11.798Z,9.00
2018-10-18T05:39:39.865Z,9.10
2018-10-18T05:42:08.023Z,9.10
2018-10-18T05:44:36.161Z,9.10
2018-10-18T05:47:04.766Z,9.00
2018-10-18T05:49:32.921Z,9.00
2018-10-18T05:52:01.094Z,8.90
2018-10-18T05:54:29.255Z,8.90
2018-10-18T05:56:57.404Z,9.00
2018-10-18T05:59:25.674Z,9.00
2018-10-18T06:01:53.806Z,9.00
2018-10-18T06:04:21.948Z,9.00
2018-10-18T06:06:50.106Z,9.00
2018-10-18T06:09:26.470Z,9.00
2018-10-18T06:11:54.626Z,8.80
2018-10-18T06:14:22.762Z,8.80
2018-10-18T06:16:50.907Z,8.80
2018-10-18T06:19:19.094Z,8.80
2018-10-18T06:21:47.230Z,8.90
2018-10-18T06:24:15.370Z,9.00
2018-10-18T06:26:43.522Z,9.00
2018-10-18T06:29:11.774Z,9.00
2018-10-18T06:31:39.837Z,9.00
2018-10-18T06:34:07.999Z,9.10
2018-10-18T06:36:36.174Z,9.20
2018-10-18T06:39:06.476Z,9.30
2018-10-18T06:41:34.622Z,9.30
2018-10-18T06:44:02.776Z,9.40
2018-10-18T06:46:30.938Z,9.40
2018-10-18T06:48:59.250Z,9.40
2018-10-18T06:51:27.277Z,9.40
2018-10-18T06:53:55.577Z,9.50
2018-10-18T06:56:23.705Z,9.50
2018-10-18T06:58:51.853Z,9.60
2018-10-18T07:01:19.991Z,9.70
2018-10-18T07:03:48.155Z,9.80
2018-10-18T07:06:16.368Z,9.80
2018-10-18T07:08:44.494Z,9.80
2018-10-18T07:11:12.969Z,9.90
2018-10-18T07:13:41.090Z,10.00
2018-10-18T07:16:09.243Z,10.10
2018-10-18T07:18:37.434Z,10.30
2018-10-18T07:21:05.794Z,10.40
2018-10-18T07:23:34.025Z,10.60
2018-10-18T07:26:02.254Z,10.70
2018-10-18T07:28:30.422Z,10.70
2018-10-18T07:30:58.600Z,10.70
2018-10-18T07:33:26.846Z,10.80
2018-10-18T07:35:55.005Z,11.00
2018-10-18T07:38:24.323Z,11.20
2018-10-18T07:40:52.514Z,11.30
2018-10-18T07:43:20.658Z,11.20
2018-10-18T07:45:48.831Z,11.50
2018-10-18T07:48:17.119Z,11.70
2018-10-18T07:50:45.215Z,11.70
2018-10-18T07:53:13.532Z,12.00
2018-10-18T07:55:48.225Z,12.20
2018-10-18T07:58:16.366Z,12.40
2018-10-18T08:00:44.595Z,12.40
2018-10-18T08:03:12.674Z,12.60
2018-10-18T08:05:40.835Z,12.90
2018-10-18T08:08:08.994Z,13.20
2018-10-18T08:10:37.161Z,13.40
2018-10-18T08:13:05.364Z,13.40
2018-10-18T08:15:33.558Z,13.50
2018-10-18T08:18:01.753Z,13.80
2018-10-18T08:20:29.919Z,13.80
2018-10-18T08:22:58.085Z,14.10
2018-10-18T08:25:26.249Z,14.40
2018-10-18T08:27:54.405Z,14.60
2018-10-18T08:30:22.585Z,14.70
2018-10-18T08:32:50.733Z,14.70
2018-10-18T08:35:18.895Z,14.70
2018-10-18T08:37:47.145Z,14.70
2018-10-18T08:40:15.224Z,14.80
2018-10-18T08:42:43.455Z,15.00
2018-10-18T08:45:12.142Z,15.10
2018-10-18T08:47:40.397Z,15.20
2018-10-18T08:50:10.054Z,15.30
2018-10-18T08:52:38.540Z,15.30
2018-10-18T08:55:08.300Z,15.30
2018-10-18T08:57:36.378Z,15.40
2018-10-18T09:00:04.878Z,15.30
2018-10-18T09:02:33.057Z,15.20
2018-10-18T09:05:01.211Z,15.40
2018-10-18T09:07:29.390Z,15.70
2018-10-18T09:09:57.549Z,16.00
2018-10-18T09:12:25.674Z,16.50
2018-10-18T09:14:53.854Z,16.50
2018-10-18T09:17:21.990Z,16.50
2018-10-18T09:19:50.207Z,16.50
2018-10-18T09:22:18.392Z,16.40
2018-10-18T09:24:46.547Z,16.50
2018-10-18T09:27:14.687Z,16.60
2018-10-18T09:29:42.848Z,16.80
2018-10-18T09:32:11.054Z,16.80
2018-10-18T09:34:39.206Z,17.00
2018-10-18T09:37:07.515Z,17.30
2018-10-18T09:39:35.599Z,17.70
2018-10-18T09:42:03.787Z,17.50
2018-10-18T09:44:32.018Z,17.70
2018-10-18T09:47:00.165Z,17.80
2018-10-18T09:49:28.322Z,18.30
2018-10-18T09:51:56.562Z,18.80
2018-10-18T09:54:24.785Z,19.30
2018-10-18T09:56:52.979Z,19.40
2018-10-18T09:59:21.183Z,19.50
2018-10-18T10:01:54.792Z,19.70
2018-10-18T10:04:23.069Z,19.80
2018-10-18T10:06:51.150Z,20.00
2018-10-18T10:09:19.282Z,20.40
2018-10-18T10:11:47.512Z,20.60
2018-10-18T10:14:15.611Z,20.60
2018-10-18T10:16:43.774Z,21.10
2018-10-18T10:19:11.967Z,21.70
2018-10-18T10:21:40.085Z,22.00
2018-10-18T10:24:08.286Z,22.30
2018-10-18T10:26:36.433Z,22.50
2018-10-18T10:29:04.761Z,22.70
2018-10-18T10:31:32.916Z,23.00
2018-10-18T10:34:01.071Z,23.30
2018-10-18T10:36:29.269Z,23.50
2018-10-18T10:38:57.452Z,23.70
2018-10-18T10:41:25.635Z,24.00
2018-10-18T10:43:53.851Z,23.90
2018-10-18T10:46:22.116Z,23.90
2018-10-18T10:48:50.215Z,23.90
2018-10-18T10:51:18.444Z,24.00
2018-10-18T10:53:46.569Z,24.20
2018-10-18T10:56:14.806Z,24.20
2018-10-18T10:58:42.956Z,23.90
2018-10-18T11:01:16.437Z,24.00
2018-10-18T11:03:44.862Z,24.10
2018-10-18T11:06:13.138Z,24.30
2018-10-18T11:08:41.295Z,24.60
2018-10-18T11:11:09.900Z,24.90
2018-10-18T11:13:38.067Z,25.10
2018-10-18T11:16:06.696Z,25.40
2018-10-18T11:18:37.582Z,25.30
2018-10-18T11:21:07.113Z,25.40
2018-10-18T11:23:39.870Z,25.40
2018-10-18T11:26:08.171Z,25.40
2018-10-18T11:28:36.194Z,25.60
2018-10-18T11:31:04.407Z,25.80
2018-10-18T11:33:32.614Z,25.80
2018-10-18T11:36:00.798Z,26.10
2018-10-18T11:38:28.940Z,26.20
2018-10-18T11:40:57.094Z,26.30
2018-10-18T11:43:25.244Z,26.20
2018-10-18T11:45:53.406Z,26.10
2018-10-18T11:48:21.574Z,26.10
2018-10-18T11:50:49.729Z,26.10
2018-10-18T11:53:17.901Z,26.10
2018-10-18T11:55:46.331Z,26.10
2018-10-18T11:58:14.820Z,26.20
2018-10-18T12:00:42.993Z,26.10
2018-10-18T12:03:11.151Z,26.30
2018-10-18T12:05:39.327Z,26.30
2018-10-18T12:08:07.643Z,26.30
2018-10-18T12:10:35.676Z,26.10
2018-10-18T12:13:03.848Z,25.90
2018-10-18T12:15:32.018Z,26.10
2018-10-18T12:18:00.259Z,26.20
2018-10-18T12:20:28.385Z,26.30
2018-10-18T12:22:56.631Z,26.40
2018-10-18T12:25:24.837Z,26.50
2018-10-18T12:27:53.042Z,26.70
2018-10-18T12:30:21.317Z,26.60
2018-10-18T12:32:49.582Z,26.50
2018-10-18T12:35:17.944Z,26.50
2018-10-18T12:37:45.998Z,26.80
2018-10-18T12:40:14.247Z,26.90
2018-10-18T12:42:43.390Z,26.90
2018-10-18T12:45:12.262Z,27.00
2018-10-18T12:47:40.454Z,27.00
2018-10-18T12:50:08.687Z,27.00
2018-10-18T12:52:36.830Z,27.10
2018-10-18T12:55:05.261Z,27.00
2018-10-18T12:57:33.423Z,27.20
2018-10-18T13:00:01.666Z,27.30
2018-10-18T13:02:29.868Z,27.00
2018-10-18T13:04:58.006Z,26.90
2018-10-18T13:07:26.173Z,26.90
2018-10-18T13:09:54.327Z,26.80
2018-10-18T13:12:22.585Z,26.70
2018-10-18T13:14:50.613Z,26.70
2018-10-18T13:17:18.797Z,26.70
2018-10-18T13:19:46.968Z,26.90
2018-10-18T13:22:15.122Z,26.70
2018-10-18T13:24:43.282Z,26.50
2018-10-18T13:27:11.462Z,26.50
2018-10-18T13:29:39.643Z,26.40
2018-10-18T13:32:07.799Z,26.20
2018-10-18T13:34:35.946Z,26.00
2018-10-18T13:37:04.105Z,25.90
2018-10-18T13:39:32.280Z,25.70
2018-10-18T13:42:00.497Z,25.70
2018-10-18T13:44:28.775Z,25.70
2018-10-18T13:46:57.154Z,25.80
2018-10-18T13:49:25.436Z,25.80
2018-10-18T13:51:53.583Z,25.90
2018-10-18T13:54:21.735Z,26.00
2018-10-18T13:56:49.927Z,26.00
2018-10-18T13:59:29.397Z,26.20
2018-10-18T14:01:57.532Z,26.30
2018-10-18T14:04:25.803Z,25.90
2018-10-18T14:06:54.014Z,25.80
2018-10-18T14:09:22.164Z,25.80
2018-10-18T14:11:50.419Z,25.90
2018-10-18T14:14:18.807Z,26.00
2018-10-18T14:16:47.014Z,25.90
2018-10-18T14:19:15.351Z,25.70
2018-10-18T14:21:43.576Z,25.70
2018-10-18T14:24:11.746Z,25.70
2018-10-18T14:26:39.943Z,25.50
2018-10-18T14:29:08.169Z,25.30
2018-10-18T14:31:36.347Z,25.20
2018-10-18T14:34:05.105Z,24.90
2018-10-18T14:36:33.386Z,24.90
2018-10-18T14:39:01.628Z,24.70
2018-10-18T14:41:29.808Z,24.50
2018-10-18T14:43:58.074Z,24.30
2018-10-18T14:46:26.607Z,24.20
2018-10-18T14:48:54.823Z,24.00
2018-10-18T14:51:23.207Z,23.70
2018-10-18T14:53:51.371Z,23.70
2018-10-18T14:56:19.583Z,23.50
2018-10-18T14:58:54.545Z,23.50
2018-10-18T15:01:22.690Z,23.40
2018-10-18T15:03:50.857Z,23.50
2018-10-18T15:06:19.056Z,23.30
2018-10-18T15:08:47.211Z,23.20
2018-10-18T15:11:15.489Z,23.00
2018-10-18T15:13:43.616Z,22.90
2018-10-18T15:16:11.795Z,22.90
2018-10-18T15:18:40.125Z,22.90
2018-10-18T15:21:08.388Z,22.70
2018-10-18T15:23:36.566Z,22.60
2018-10-18T15:26:11.450Z,22.50
2018-10-18T15:28:39.699Z,22.40
2018-10-18T15:31:07.898Z,22.40
2018-10-18T15:33:36.071Z,22.30
2018-10-18T15:36:04.360Z,22.10
2018-10-18T15:38:32.582Z,22.00
2018-10-18T15:41:00.704Z,21.90
2018-10-18T15:43:28.855Z,21.70
2018-10-18T15:45:57.002Z,21.50
2018-10-18T15:48:25.230Z,21.40
2018-10-18T15:50:53.382Z,21.30
2018-10-18T15:53:21.755Z,21.20
2018-10-18T15:55:49.893Z,21.00
2018-10-18T15:58:18.087Z,20.70
2018-10-18T16:00:46.266Z,20.60
2018-10-18T16:03:14.542Z,20.50
2018-10-18T16:05:42.697Z,20.30
2018-10-18T16:08:10.899Z,20.30
2018-10-18T16:10:39.081Z,20.30
2018-10-18T16:13:07.247Z,20.10
2018-10-18T16:15:35.445Z,19.90
2018-10-18T16:18:03.592Z,19.80
2018-10-18T16:23:35.140Z,19.70
2018-10-18T16:26:04.758Z,19.50
2018-10-18T16:28:33.110Z,19.40
2018-10-18T16:31:07.087Z,19.30
2018-10-18T16:33:35.288Z,19.30
2018-10-18T16:36:03.535Z,19.30
2018-10-18T16:38:31.872Z,19.20
2018-10-18T16:41:00.197Z,19.20
2018-10-18T16:43:28.271Z,19.10
2018-10-18T16:45:56.529Z,19.10
2018-10-18T16:48:24.740Z,19.00
2018-10-18T16:50:52.844Z,19.00
2018-10-18T16:53:20.997Z,18.90
2018-10-18T16:55:49.160Z,18.80
2018-10-18T16:58:17.576Z,18.80
2018-10-18T17:00:45.699Z,18.70
2018-10-18T17:03:13.915Z,18.60
2018-10-18T17:05:42.103Z,18.60
2018-10-18T17:08:10.394Z,18.50
2018-10-18T17:10:38.479Z,18.50
2018-10-18T17:13:06.698Z,18.50
2018-10-18T17:15:34.911Z,18.40
2018-10-18T17:18:03.334Z,18.30
2018-10-18T17:20:31.427Z,18.30
2018-10-18T17:22:59.563Z,18.20
2018-10-18T17:25:27.757Z,18.20
2018-10-18T17:27:55.934Z,18.10
2018-10-18T17:30:24.169Z,18.10
2018-10-18T17:32:52.413Z,18.00
2018-10-18T17:35:20.677Z,17.90
2018-10-18T17:37:48.881Z,17.90
2018-10-18T17:40:17.115Z,17.80
2018-10-18T17:42:45.340Z,17.80
2018-10-18T17:45:13.576Z,17.70
2018-10-18T17:47:42.754Z,17.60
2018-10-18T17:50:11.318Z,17.60
2018-10-18T17:52:39.606Z,17.60
2018-10-18T17:55:08.172Z,17.60
2018-10-18T17:57:36.886Z,17.50
2018-10-18T18:00:08.126Z,17.50
2018-10-18T18:02:36.246Z,17.50
2018-10-18T18:05:04.712Z,17.40
2018-10-18T18:07:32.889Z,17.40
2018-10-18T18:10:01.104Z,17.30
2018-10-18T18:12:29.252Z,17.20
2018-10-18T18:14:57.417Z,17.20
2018-10-18T18:17:25.600Z,17.20
2018-10-18T18:19:53.764Z,17.10
2018-10-18T18:22:21.946Z,17.10
2018-10-18T18:24:50.119Z,17.00
2018-10-18T18:27:18.322Z,16.90
2018-10-18T18:29:46.543Z,16.90
2018-10-18T18:32:14.730Z,16.90
2018-10-18T18:34:42.960Z,16.90
2018-10-18T18:37:11.174Z,16.80
2018-10-18T18:39:39.463Z,16.80
2018-10-18T18:42:07.654Z,16.80
2018-10-18T18:44:35.814Z,16.80
2018-10-18T18:47:04.011Z,16.70
2018-10-18T18:49:32.275Z,16.60
2018-10-18T18:52:00.499Z,16.60
2018-10-18T18:54:28.668Z,16.60
2018-10-18T18:56:57.022Z,16.50
2018-10-18T18:59:25.240Z,16.50
2018-10-18T19:01:53.743Z,16.50
2018-10-18T19:04:22.011Z,16.40
2018-10-18T19:06:50.217Z,16.40
2018-10-18T19:09:18.431Z,16.30
2018-10-18T19:11:46.582Z,16.30
2018-10-18T19:14:14.760Z,16.20
2018-10-18T19:16:42.992Z,16.20
2018-10-18T19:19:11.273Z,16.20
2018-10-18T19:21:39.455Z,16.20
2018-10-18T19:24:07.705Z,16.20
2018-10-18T19:26:35.914Z,16.10
2018-10-18T19:29:04.094Z,16.10
2018-10-18T19:31:32.258Z,16.10
2018-10-18T19:34:00.583Z,16.10
2018-10-18T19:36:28.820Z,16.00
2018-10-18T19:38:56.993Z,15.90
2018-10-18T19:41:25.170Z,15.80
2018-10-18T19:43:53.354Z,15.80
2018-10-18T19:46:21.692Z,15.80
2018-10-18T19:48:56.230Z,15.70
2018-10-18T19:51:24.497Z,15.70
2018-10-18T19:53:52.646Z,15.70
2018-10-18T19:56:20.827Z,15.60
2018-10-18T19:58:49.024Z,15.50
2018-10-18T20:01:17.197Z,15.50
2018-10-18T20:03:45.646Z,15.40
2018-10-18T20:06:13.850Z,15.40
2018-10-18T20:08:42.072Z,15.30
2018-10-18T20:11:10.299Z,15.30
2018-10-18T20:13:38.651Z,15.20
2018-10-18T20:16:07.164Z,15.20
2018-10-18T20:18:35.457Z,15.10
2018-10-18T20:21:03.640Z,15.00
2018-10-18T20:23:31.848Z,15.00
2018-10-18T20:26:00.230Z,15.00
2018-10-18T20:28:28.242Z,15.00
2018-10-18T20:30:56.443Z,14.90
2018-10-18T20:33:24.651Z,14.90
2018-10-18T20:35:52.872Z,14.80
2018-10-18T20:38:21.065Z,14.80
2018-10-18T20:40:49.255Z,14.90
2018-10-18T20:43:17.446Z,14.90
2018-10-18T20:45:45.625Z,14.80
2018-10-18T20:48:13.849Z,14.70
2018-10-18T20:50:41.960Z,14.60
2018-10-18T20:53:10.614Z,14.50
2018-10-18T20:55:38.753Z,14.40
2018-10-18T20:58:08.596Z,14.30
2018-10-18T21:00:38.183Z,14.20
2018-10-18T21:03:06.503Z,14.10
2018-10-18T21:05:34.677Z,14.00
2018-10-18T21:08:02.887Z,13.90
2018-10-18T21:10:31.062Z,13.80
2018-10-18T21:12:59.354Z,13.80
2018-10-18T21:15:27.516Z,13.80
2018-10-18T21:17:55.800Z,13.70
2018-10-18T21:20:23.948Z,13.70
2018-10-18T21:22:52.257Z,13.60
2018-10-18T21:25:20.407Z,13.50
2018-10-18T21:27:48.635Z,13.40
2018-10-18T21:30:16.842Z,13.40
2018-10-18T21:32:45.143Z,13.30
2018-10-18T21:35:13.361Z,13.20
2018-10-18T21:37:41.523Z,13.30
2018-10-18T21:40:09.730Z,13.20
2018-10-18T21:42:37.936Z,13.20
2018-10-18T21:45:06.145Z,13.20
2018-10-18T21:47:34.459Z,13.20
2018-10-18T21:50:02.618Z,13.10
2018-10-18T21:52:30.844Z,13.00
2018-10-18T21:54:58.999Z,13.00
2018-10-18T21:57:27.364Z,12.90
2018-10-18T21:59:55.484Z,12.90
2018-10-18T22:02:23.734Z,12.90
2018-10-18T22:04:51.904Z,12.80
2018-10-18T22:07:20.050Z,12.70
2018-10-18T22:09:48.210Z,12.70
2018-10-18T22:12:16.366Z,12.60
2018-10-18T22:14:44.587Z,12.60
2018-10-18T22:17:12.844Z,12.60
2018-10-18T22:19:40.985Z,12.60
2018-10-18T22:22:09.217Z,12.50
2018-10-18T22:24:37.411Z,12.50
2018-10-18T22:27:05.638Z,12.40
2018-10-18T22:29:33.794Z,12.40
2018-10-18T22:32:01.982Z,12.40
2018-10-18T22:34:30.263Z,12.30
2018-10-18T22:36:58.426Z,12.30
2018-10-18T22:39:26.762Z,12.20
2018-10-18T22:41:55.043Z,12.10
2018-10-18T22:44:23.318Z,12.00
2018-10-18T22:46:51.576Z,11.90
2018-10-18T22:49:19.877Z,11.80
2018-10-18T22:51:48.133Z,11.60
2018-10-18T22:54:16.360Z,11.50
2018-10-18T22:56:44.536Z,11.30
2018-10-18T22:59:12.806Z,11.20
2018-10-18T23:01:40.915Z,11.10
2018-10-18T23:04:09.183Z,11.10
2018-10-18T23:06:37.503Z,11.10
2018-10-18T23:09:08.439Z,11.00
2018-10-18T23:11:36.642Z,11.00
2018-10-18T23:14:05.331Z,11.00
2018-10-18T23:16:33.583Z,11.10
2018-10-18T23:19:01.806Z,11.10
2018-10-18T23:21:30.002Z,11.10
2018-10-18T23:23:58.170Z,11.10
2018-10-18T23:26:26.326Z,11.00
2018-10-18T23:28:54.564Z,11.00
2018-10-18T23:31:22.703Z,11.00
2018-10-18T23:33:51.096Z,11.00
2018-10-18T23:36:19.311Z,11.00
2018-10-18T23:38:47.496Z,10.90
2018-10-18T23:41:15.656Z,11.00
2018-10-18T23:43:43.841Z,11.00
2018-10-18T23:46:11.998Z,11.00
2018-10-18T23:48:40.172Z,10.90
2018-10-18T23:51:08.368Z,10.90
2018-10-18T23:53:36.554Z,11.00
2018-10-18T23:56:04.847Z,11.00
2018-10-18T23:58:33.001Z,10.90
